Time;durP1;ratioP1;P1;durP2;ratioP2;P2;SDS_P1;SDS_P2;PMS_P1;PMS_P2;Temp;Humidity;BMP_temperature;BMP_pressure;BME280_temperature;BME280_humidity;BME280_pressure;Samples;Min_cycle;Max_cycle;Signal;HPM_P1;HPM_P2
2023/12/10 00:02:21;;;;;;;34.90;23.20;;;;;;;-2.80;83.63;100053.64;105958;1257;59734;-81
2023/12/10 00:04:49;;;;;;;35.50;22.20;;;;;;;-2.82;83.99;100056.02;106296;1256;59654;-78
2023/12/10 00:07:17;;;;;;;32.30;23.40;;;;;;;-2.86;84.05;100052.89;106345;1258;74132;-78
2023/12/10 00:09:45;;;;;;;36.20;22.90;;;;;;;-2.89;84.23;100049.41;106269;1255;70138;-78
2023/12/10 00:12:12;;;;;;;37.80;23.70;;;;;;;-2.89;84.43;100055.13;106245;1260;71138;-80
2023/12/10 00:14:40;;;;;;;33.40;22.60;;;;;;;-2.79;84.17;100053.77;106667;1254;59685;-79
2023/12/10 00:17:08;;;;;;;35.90;23.80;;;;;;;-2.69;83.85;100057.81;106484;1255;59536;-80
2023/12/10 00:19:35;;;;;;;34.70;22.40;;;;;;;-2.70;83.89;100054.73;105867;1256;73297;-78
2023/12/10 00:22:03;;;;;;;38.80;24.20;;;;;;;-2.73;84.24;100049.32;105979;1258;70132;-80
2023/12/10 00:24:31;;;;;;;37.90;23.20;;;;;;;-2.76;84.46;100052.06;106186;1256;70862;-80
2023/12/10 00:26:59;;;;;;;37.40;23.80;;;;;;;-2.80;84.31;100056.92;106750;1255;59560;-79
2023/12/10 00:29:26;;;;;;;34.30;22.60;;;;;;;-2.84;84.26;100053.49;106708;1257;60122;-79
2023/12/10 00:31:54;;;;;;;36.70;23.20;;;;;;;-2.75;84.19;100048.73;106414;1255;71802;-80
2023/12/10 00:34:21;;;;;;;34.60;22.60;;;;;;;-2.67;83.73;100039.44;105812;1258;68753;-81
2023/12/10 00:36:49;;;;;;;33.10;21.90;;;;;;;-2.69;83.93;100041.69;106410;1256;73227;-77
2023/12/10 00:39:17;;;;;;;35.50;23.50;;;;;;;-2.75;84.14;100042.63;108152;1260;59277;-79
2023/12/10 00:41:46;;;;;;;36.20;23.90;;;;;;;-2.77;84.37;100041.67;108377;1256;59547;-80
2023/12/10 00:44:14;;;;;;;38.70;23.40;;;;;;;-2.78;84.48;100045.24;105758;1258;73103;-80
2023/12/10 00:46:41;;;;;;;32.60;21.50;;;;;;;-2.79;84.63;100048.40;105742;1256;70010;-76
2023/12/10 00:49:10;;;;;;;31.90;20.30;;;;;;;-2.71;84.31;100043.85;105898;1255;73026;-79
2023/12/10 00:51:38;;;;;;;32.80;21.60;;;;;;;-2.62;83.86;100042.52;105665;1260;59650;-79
2023/12/10 00:54:06;;;;;;;33.50;22.10;;;;;;;-2.64;84.06;100045.38;105593;1256;59685;-79
2023/12/10 00:56:34;;;;;;;32.20;21.80;;;;;;;-2.68;84.23;100053.44;105716;1260;73311;-79
2023/12/10 00:59:02;;;;;;;34.00;22.30;;;;;;;-2.74;84.35;100054.05;105631;1258;68726;-79
2023/12/10 01:01:29;;;;;;;34.30;22.60;;;;;;;-2.81;84.51;100056.09;105691;1256;71411;-79
2023/12/10 01:03:57;;;;;;;36.90;22.60;;;;;;;-2.84;84.81;100055.05;106934;1255;59165;-78
2023/12/10 01:06:25;;;;;;;35.20;22.10;;;;;;;-2.76;84.64;100050.86;107120;1258;59516;-80
2023/12/10 01:08:53;;;;;;;35.90;22.20;;;;;;;-2.67;84.33;100042.75;105790;1261;72849;-79
2023/12/10 01:11:20;;;;;;;37.70;23.10;;;;;;;-2.64;84.73;100045.76;105680;1255;70197;-80
2023/12/10 01:13:48;;;;;;;35.90;22.80;;;;;;;-2.63;85.15;100039.98;105983;1255;72961;-79
2023/12/10 01:16:16;;;;;;;39.00;25.00;;;;;;;-2.65;85.05;100035.02;105792;1257;59549;-78
2023/12/10 01:18:44;;;;;;;39.70;24.20;;;;;;;-2.68;84.73;100030.50;105751;1260;60023;-80
2023/12/10 01:21:12;;;;;;;41.20;25.90;;;;;;;-2.71;84.86;100033.41;106245;1257;71859;-80
2023/12/10 01:23:40;;;;;;;36.90;23.70;;;;;;;-2.62;84.60;100031.93;106355;1259;70071;-81
2023/12/10 01:26:09;;;;;;;38.10;22.70;;;;;;;-2.51;84.41;100032.08;106666;1255;73158;-80
2023/12/10 01:28:37;;;;;;;36.80;22.60;;;;;;;-2.50;84.67;100026.98;107151;1257;59661;-81
2023/12/10 01:31:05;;;;;;;35.90;23.20;;;;;;;-2.50;84.83;100028.77;107128;1255;59601;-81
2023/12/10 01:33:33;;;;;;;37.80;22.90;;;;;;;-2.53;84.29;100028.58;108121;1255;71861;-78
2023/12/10 01:36:01;;;;;;;33.30;21.90;;;;;;;-2.58;84.31;100032.06;107448;1261;68860;-79
2023/12/10 01:38:29;;;;;;;37.60;23.20;;;;;;;-2.59;84.25;100026.58;106359;1255;72661;-80
2023/12/10 01:40:57;;;;;;;36.60;22.30;;;;;;;-2.48;83.98;100026.73;106959;1256;59731;-81
2023/12/10 01:43:24;;;;;;;29.70;20.90;;;;;;;-2.38;83.75;100028.98;107117;1258;60173;-81
2023/12/10 01:45:53;;;;;;;36.20;23.20;;;;;;;-2.35;83.99;100034.06;107764;1255;71639;-81
2023/12/10 01:48:21;;;;;;;35.70;23.20;;;;;;;-2.34;84.24;100028.82;106888;1260;69242;-80
2023/12/10 01:50:49;;;;;;;37.10;24.20;;;;;;;-2.34;84.31;100025.52;106717;1256;70806;-80
2023/12/10 01:53:17;;;;;;;37.90;25.60;;;;;;;-2.36;84.15;100026.29;105925;1256;59744;-79
2023/12/10 01:55:45;;;;;;;38.10;23.60;;;;;;;-2.38;84.13;100021.34;105761;1261;60144;-82
2023/12/10 01:58:13;;;;;;;36.90;22.80;;;;;;;-2.30;83.52;100018.03;106235;1258;73070;-79
2023/12/10 02:00:40;;;;;;;35.40;24.00;;;;;;;-2.24;83.12;100018.90;106374;1256;71033;-80
2023/12/10 02:03:08;;;;;;;38.10;23.00;;;;;;;-2.27;83.27;100012.81;106194;1257;73481;-79
2023/12/10 02:05:36;;;;;;;37.70;24.20;;;;;;;-2.33;83.45;100009.70;105741;1264;59648;-79
2023/12/10 02:08:04;;;;;;;41.00;25.20;;;;;;;-2.41;83.34;100011.81;105860;1260;59659;-78
2023/12/10 02:10:32;;;;;;;37.40;24.50;;;;;;;-2.49;83.45;100013.59;105989;1260;73268;-78
2023/12/10 02:12:59;;;;;;;35.50;22.90;;;;;;;-2.54;83.65;100011.27;105773;1256;69957;-79
2023/12/10 02:15:30;;;;;;;38.10;23.10;;;;;;;-2.47;83.48;100010.73;105845;1255;72697;-78
2023/12/10 02:17:58;;;;;;;36.80;22.50;;;;;;;-2.39;83.38;100011.17;106784;1255;59633;-78
2023/12/10 02:20:25;;;;;;;40.50;23.60;;;;;;;-2.42;83.58;100008.71;107808;1261;59978;-79
2023/12/10 02:23:07;;;;;;;35.10;22.20;;;;;;;-2.44;83.75;100007.27;106874;1260;71474;-79
2023/12/10 02:25:36;;;;;;;40.90;23.90;;;;;;;-2.49;83.62;100005.25;107869;1255;69397;-78
2023/12/10 02:28:05;;;;;;;41.70;24.30;;;;;;;-2.52;83.76;100005.98;108238;1256;71090;-77
2023/12/10 02:30:33;;;;;;;42.10;22.10;;;;;;;-2.54;83.96;100011.45;106891;1255;62285;-78
2023/12/10 02:33:01;;;;;;;38.60;22.70;;;;;;;-2.42;83.90;100009.95;106010;1255;60113;-78
2023/12/10 02:35:29;;;;;;;35.90;21.80;;;;;;;-2.31;83.60;100001.58;105901;1260;73046;-76
2023/12/10 02:37:57;;;;;;;36.10;23.10;;;;;;;-2.36;83.19;100001.98;106062;1256;70246;-77
2023/12/10 02:40:25;;;;;;;41.00;25.00;;;;;;;-2.43;83.39;100005.15;107247;1256;72814;-77
2023/12/10 02:42:53;;;;;;;38.30;22.70;;;;;;;-2.52;83.56;100000.59;105789;1259;59624;-78
2023/12/10 02:45:21;;;;;;;43.10;24.80;;;;;;;-2.58;83.57;100005.57;105677;1256;59746;-78
2023/12/10 02:47:48;;;;;;;44.60;24.50;;;;;;;-2.63;83.93;100004.44;105562;1255;73182;-77
2023/12/10 02:50:16;;;;;;;35.90;22.50;;;;;;;-2.54;83.85;100011.23;105704;1255;71028;-77
2023/12/10 02:52:44;;;;;;;38.80;24.10;;;;;;;-2.44;83.49;100009.16;105494;1255;71391;-76
2023/12/10 02:55:11;;;;;;;37.00;22.80;;;;;;;-2.49;83.49;100007.88;105553;1258;59668;-75
2023/12/10 02:57:39;;;;;;;39.10;23.60;;;;;;;-2.54;83.97;100002.41;105609;1255;59657;-75
2023/12/10 03:00:10;;;;;;;36.30;22.60;;;;;;;-2.58;84.26;99995.47;105516;1256;71724;-75
2023/12/10 03:02:39;;;;;;;40.80;24.50;;;;;;;-2.62;84.42;99996.20;105455;1255;70306;-75
2023/12/10 03:05:07;;;;;;;40.30;22.30;;;;;;;-2.63;84.66;99997.15;105644;1261;71420;-74
2023/12/10 03:07:34;;;;;;;36.40;23.30;;;;;;;-2.57;83.93;100004.98;105509;1257;62100;-75
2023/12/10 03:10:02;;;;;;;38.30;22.90;;;;;;;-2.53;83.55;99999.05;105629;1257;60547;-76
2023/12/10 03:12:30;;;;;;;39.20;22.90;;;;;;;-2.57;83.94;99993.70;105552;1255;72814;-76
2023/12/10 03:14:58;;;;;;;40.60;25.30;;;;;;;-2.62;84.29;99993.77;105623;1256;70229;-76
2023/12/10 03:17:26;;;;;;;44.30;25.00;;;;;;;-2.70;84.35;99992.45;105962;1256;72685;-76
2023/12/10 03:19:53;;;;;;;41.30;24.40;;;;;;;-2.77;84.41;99988.48;106167;1260;60503;-75
2023/12/10 03:22:21;;;;;;;41.70;24.80;;;;;;;-2.83;84.52;99994.65;105986;1255;60524;-76
2023/12/10 03:24:48;;;;;;;40.60;23.90;;;;;;;-2.74;84.53;99994.58;105689;1256;73849;-75
2023/12/10 03:27:17;;;;;;;36.90;22.40;;;;;;;-2.65;84.54;99992.72;105669;1260;69166;-73
2023/12/10 03:29:44;;;;;;;39.60;24.40;;;;;;;-2.67;84.52;99989.00;105824;1260;72685;-74
2023/12/10 03:32:12;;;;;;;37.70;24.00;;;;;;;-2.74;84.58;99991.27;105622;1256;60535;-75
2023/12/10 03:34:40;;;;;;;40.30;25.80;;;;;;;-2.81;84.82;99994.73;105439;1255;60513;-76
2023/12/10 03:37:08;;;;;;;42.30;25.10;;;;;;;-2.84;85.11;99997.87;105514;1255;73862;-76
2023/12/10 03:39:35;;;;;;;41.70;24.20;;;;;;;-2.86;85.28;99999.17;105567;1256;70285;-77
2023/12/10 03:42:03;;;;;;;37.20;22.30;;;;;;;-2.77;85.14;100000.27;106431;1261;71072;-78
2023/12/10 03:44:32;;;;;;;39.80;22.50;;;;;;;-2.66;84.72;100000.08;106981;1260;60524;-78
2023/12/10 03:47:03;;;;;;;35.70;22.40;;;;;;;-2.68;84.73;100002.39;106348;1256;60480;-78
2023/12/10 03:49:31;;;;;;;38.50;23.20;;;;;;;-2.73;84.92;100007.00;105608;1261;73394;-78
2023/12/10 03:51:59;;;;;;;38.50;24.60;;;;;;;-2.77;85.47;100012.72;105488;1256;70097;-78
2023/12/10 03:54:26;;;;;;;39.30;23.40;;;;;;;-2.77;85.76;100002.86;105694;1259;71463;-78
2023/12/10 03:56:54;;;;;;;37.90;22.50;;;;;;;-2.78;85.58;99999.99;105590;1260;61821;-78
2023/12/10 03:59:21;;;;;;;37.00;22.70;;;;;;;-2.70;85.32;99994.93;105783;1255;60350;-78
2023/12/10 04:01:49;;;;;;;39.30;22.90;;;;;;;-2.62;85.14;99993.61;105442;1256;72413;-77
2023/12/10 04:04:17;;;;;;;37.70;21.90;;;;;;;-2.65;85.07;99993.75;105717;1260;68957;-78
2023/12/10 04:06:44;;;;;;;40.00;23.20;;;;;;;-2.71;85.32;99988.68;105677;1255;72735;-78
2023/12/10 04:09:12;;;;;;;37.10;23.00;;;;;;;-2.77;85.50;99990.19;105758;1256;60895;-75
2023/12/10 04:11:40;;;;;;;40.30;24.50;;;;;;;-2.81;85.58;99992.86;105671;1256;60470;-76
2023/12/10 04:14:11;;;;;;;40.10;23.10;;;;;;;-2.84;85.82;99989.86;106303;1256;73958;-74
2023/12/10 04:16:39;;;;;;;38.90;24.00;;;;;;;-2.75;85.68;99991.85;105896;1255;70607;-76
2023/12/10 04:19:06;;;;;;;37.80;22.40;;;;;;;-2.67;85.30;99990.41;105792;1256;72743;-78
2023/12/10 04:21:34;;;;;;;39.30;24.40;;;;;;;-2.69;85.45;99990.17;105611;1256;60543;-78
2023/12/10 04:24:03;;;;;;;41.00;24.70;;;;;;;-2.72;85.77;99985.11;105711;1257;60617;-79
2023/12/10 04:26:30;;;;;;;41.70;25.80;;;;;;;-2.75;85.83;99986.47;105539;1261;73831;-78
2023/12/10 04:28:58;;;;;;;38.70;23.90;;;;;;;-2.80;85.89;99985.86;105693;1260;68895;-78
2023/12/10 04:31:26;;;;;;;41.60;25.20;;;;;;;-2.83;86.07;99988.09;105622;1256;72668;-77
2023/12/10 04:33:53;;;;;;;40.50;25.20;;;;;;;-2.77;85.81;99981.74;105752;1256;60548;-77
2023/12/10 04:36:21;;;;;;;42.70;24.50;;;;;;;-2.69;85.51;99978.20;105547;1255;60510;-78
2023/12/10 04:38:49;;;;;;;43.90;24.70;;;;;;;-2.74;85.47;99980.55;105634;1255;72632;-77
2023/12/10 04:41:17;;;;;;;40.00;24.70;;;;;;;-2.84;85.90;99983.09;105483;1256;69222;-78
2023/12/10 04:43:44;;;;;;;40.40;25.50;;;;;;;-2.91;86.08;99991.98;105508;1256;71386;-78
2023/12/10 04:46:12;;;;;;;47.90;26.50;;;;;;;-2.98;86.45;99998.35;105671;1260;60512;-77
2023/12/10 04:48:39;;;;;;;42.80;25.70;;;;;;;-2.97;86.72;100000.04;105516;1258;60439;-77
2023/12/10 04:51:07;;;;;;;40.30;24.90;;;;;;;-2.84;86.25;100004.77;105400;1263;74302;-76
2023/12/10 04:53:35;;;;;;;38.60;23.80;;;;;;;-2.77;86.24;100001.83;105517;1255;70299;-76
2023/12/10 04:56:03;;;;;;;36.60;24.90;;;;;;;-2.78;86.36;100008.30;105499;1260;71420;-75
2023/12/10 04:58:30;;;;;;;39.20;25.10;;;;;;;-2.83;86.30;100014.96;105579;1255;60548;-76
2023/12/10 05:00:58;;;;;;;40.80;26.50;;;;;;;-2.84;86.62;100012.59;105703;1256;60874;-76
2023/12/10 05:03:26;;;;;;;39.60;24.70;;;;;;;-2.84;86.86;100022.62;106167;1255;72581;-76
2023/12/10 05:05:54;;;;;;;39.70;24.70;;;;;;;-2.74;86.38;100023.19;106725;1256;70884;-76
2023/12/10 05:08:21;;;;;;;35.90;23.20;;;;;;;-2.63;85.98;100020.02;106583;1256;71404;-75
2023/12/10 05:10:49;;;;;;;36.40;23.70;;;;;;;-2.66;85.87;100019.13;105773;1255;60447;-75
2023/12/10 05:13:16;;;;;;;43.80;25.50;;;;;;;-2.73;85.81;100024.88;105573;1255;60452;-77
2023/12/10 05:15:44;;;;;;;42.40;24.90;;;;;;;-2.79;86.22;100030.36;105560;1261;73896;-77
2023/12/10 05:18:12;;;;;;;40.60;24.60;;;;;;;-2.84;86.33;100026.09;105611;1256;70534;-77
2023/12/10 05:20:40;;;;;;;41.50;25.40;;;;;;;-2.87;86.30;100024.88;105630;1260;72447;-78
2023/12/10 05:23:07;;;;;;;38.60;24.20;;;;;;;-2.81;85.92;100017.77;105652;1256;60523;-78
2023/12/10 05:25:35;;;;;;;38.40;24.30;;;;;;;-2.71;85.90;100015.42;106290;1255;60512;-83
2023/12/10 05:28:02;;;;;;;37.30;23.90;;;;;;;-2.71;86.14;100016.64;106276;1256;72666;-82
2023/12/10 05:30:30;;;;;;;40.70;24.70;;;;;;;-2.73;86.34;100016.52;106042;1256;68760;-78
2023/12/10 05:33:01;;;;;;;41.80;27.20;;;;;;;-2.76;86.42;100020.34;105719;1260;72647;-80
2023/12/10 05:35:29;;;;;;;39.20;25.70;;;;;;;-2.77;86.63;100023.67;105720;1260;60528;-81
2023/12/10 05:37:56;;;;;;;38.70;24.00;;;;;;;-2.79;86.68;100019.79;106206;1256;60544;-77
2023/12/10 05:40:25;;;;;;;42.30;24.50;;;;;;;-2.70;86.23;100020.73;105923;1260;72580;-77
2023/12/10 05:42:54;;;;;;;35.60;24.10;;;;;;;-2.60;85.97;100019.02;105651;1260;69229;-80
2023/12/10 05:45:22;;;;;;;40.60;25.60;;;;;;;-2.62;85.86;100016.84;105676;1256;72804;-80
2023/12/10 05:47:50;;;;;;;41.60;25.50;;;;;;;-2.65;86.19;100022.55;106340;1260;60419;-80
2023/12/10 05:50:17;;;;;;;38.10;24.60;;;;;;;-2.64;86.71;100016.45;108973;1255;59015;-80
2023/12/10 05:52:45;;;;;;;43.40;24.90;;;;;;;-2.63;86.80;100007.70;105841;1260;73896;-79
2023/12/10 05:55:13;;;;;;;38.20;23.60;;;;;;;-2.61;86.77;100006.75;105639;1260;67887;-80
2023/12/10 05:57:40;;;;;;;40.10;24.40;;;;;;;-2.51;86.23;100007.64;105969;1255;72523;-79
2023/12/10 06:00:08;;;;;;;36.50;23.30;;;;;;;-2.43;85.70;100012.07;108414;1255;60416;-77
2023/12/10 06:02:36;;;;;;;33.40;22.20;;;;;;;-2.43;85.95;100016.95;107944;1258;58864;-81
2023/12/10 06:05:04;;;;;;;42.00;23.10;;;;;;;-2.44;86.12;100020.64;105886;1261;74417;-79
2023/12/10 06:07:32;;;;;;;36.80;24.70;;;;;;;-2.46;86.11;100017.08;106065;1259;68695;-78
2023/12/10 06:10:00;;;;;;;36.30;22.10;;;;;;;-2.50;85.98;100021.99;105644;1260;72669;-74
2023/12/10 06:12:28;;;;;;;37.60;22.50;;;;;;;-2.50;85.69;100028.23;105623;1255;60465;-80
2023/12/10 06:14:56;;;;;;;32.80;21.40;;;;;;;-2.44;85.41;100031.91;105654;1255;60551;-79
2023/12/10 06:17:23;;;;;;;30.30;20.30;;;;;;;-2.44;85.64;100032.95;105498;1261;72951;-79
2023/12/10 06:19:51;;;;;;;34.80;23.70;;;;;;;-2.45;85.99;100031.94;105770;1258;69055;-80
2023/12/10 06:22:18;;;;;;;31.90;20.20;;;;;;;-2.45;86.26;100032.48;105786;1256;71867;-78
2023/12/10 06:24:46;;;;;;;35.40;22.50;;;;;;;-2.50;85.91;100031.52;105623;1255;60928;-80
2023/12/10 06:27:14;;;;;;;31.80;21.70;;;;;;;-2.43;85.85;100029.44;105701;1260;60437;-80
2023/12/10 06:29:42;;;;;;;28.20;18.80;;;;;;;-2.38;85.65;100034.04;105710;1255;73955;-79
2023/12/10 06:32:09;;;;;;;27.10;18.90;;;;;;;-2.43;85.75;100027.55;105735;1256;72639;-80
2023/12/10 06:34:37;;;;;;;26.60;17.90;;;;;;;-2.48;86.31;100022.20;105753;1255;72669;-77
2023/12/10 06:37:04;;;;;;;32.00;18.90;;;;;;;-2.50;86.32;100028.55;105706;1260;60426;-78
2023/12/10 06:39:33;;;;;;;31.80;19.80;;;;;;;-2.53;86.50;100029.08;105724;1256;60531;-77
2023/12/10 06:42:01;;;;;;;36.10;21.20;;;;;;;-2.53;86.66;100027.54;105821;1255;72398;-76
2023/12/10 06:44:29;;;;;;;36.70;22.90;;;;;;;-2.42;86.44;100024.52;106143;1260;68870;-77
2023/12/10 06:46:56;;;;;;;28.00;18.40;;;;;;;-2.30;85.86;100024.45;106326;1260;71218;-80
2023/12/10 06:49:24;;;;;;;28.40;18.70;;;;;;;-2.32;85.98;100027.82;105932;1256;60484;-80
2023/12/10 06:51:52;;;;;;;30.10;18.00;;;;;;;-2.35;86.24;100027.27;106425;1255;61657;-80
2023/12/10 06:54:20;;;;;;;26.30;17.80;;;;;;;-2.37;86.31;100025.83;107860;1255;71553;-82
2023/12/10 06:56:48;;;;;;;25.40;16.70;;;;;;;-2.41;86.11;100024.78;108945;1257;68712;-82
2023/12/10 06:59:17;;;;;;;27.30;17.30;;;;;;;-2.40;85.56;100025.77;108959;1257;70752;-87
2023/12/10 07:01:59;;;;;;;27.00;18.20;;;;;;;-2.30;85.24;100019.05;109067;1256;58280;-86
2023/12/10 07:04:28;;;;;;;24.90;17.30;;;;;;;-2.29;85.44;100017.25;108990;1257;58990;-85
2023/12/10 07:06:57;;;;;;;29.30;18.50;;;;;;;-2.34;85.54;100010.41;109086;1256;72731;-84
2023/12/10 07:09:50;;;;;;;;;;;;;;;;;;;;;
2023/12/10 07:12:42;;;;;;;28.80;19.30;;;;;;;-2.43;85.47;100030.48;107662;1257;71565;-87
2023/12/10 07:15:23;;;;;;;26.80;17.40;;;;;;;-2.45;85.44;100038.55;107354;1257;61471;-86
2023/12/10 07:18:03;;;;;;;28.40;17.90;;;;;;;-2.37;84.90;100037.46;108156;1256;59412;-88
2023/12/10 07:20:51;;;;;;;30.20;20.10;;;;;;;-2.38;84.35;100029.88;109226;1256;71954;-87
2023/12/10 07:23:21;;;;;;;29.10;19.70;;;;;;;-2.44;84.62;100034.31;109053;1258;69448;-86
2023/12/10 07:26:16;;;;;;;32.70;20.90;;;;;;;-2.49;84.78;100034.75;109138;1257;71486;-85
2023/12/10 07:28:51;;;;;;;34.40;22.90;;;;;;;-2.51;85.28;100034.34;107692;1257;60433;-88
2023/12/10 07:31:49;;;;;;;30.50;19.50;;;;;;;-2.48;85.49;100037.67;107396;1256;60321;-86
2023/12/10 07:34:20;;;;;;;28.80;19.40;;;;;;;-2.31;85.13;100040.77;106960;1265;75048;-86
2023/12/10 07:36:49;;;;;;;31.10;20.70;;;;;;;-2.17;84.82;100051.00;106602;1262;72640;-85
2023/12/10 07:39:19;;;;;;;35.20;23.40;;;;;;;-2.12;84.93;100057.88;106178;1257;72666;-87
2023/12/10 07:41:48;;;;;;;28.90;20.10;;;;;;;-2.09;85.22;100056.67;106270;1263;60432;-88
2023/12/10 07:44:16;;;;;;;35.90;21.30;;;;;;;-2.09;85.10;100050.78;106452;1257;60345;-83
2023/12/10 07:46:46;;;;;;;34.50;22.20;;;;;;;-2.14;84.39;100060.04;108940;1256;73734;-88
2023/12/10 07:49:18;;;;;;;33.40;22.40;;;;;;;-2.06;84.42;100064.49;109112;1257;70866;-86
2023/12/10 07:51:55;;;;;;;33.10;22.60;;;;;;;-2.00;84.25;100062.44;108943;1257;71163;-86
2023/12/10 07:54:24;;;;;;;39.50;25.20;;;;;;;-2.07;84.29;100057.41;108747;1264;60648;-87
2023/12/10 07:56:53;;;;;;;35.70;24.60;;;;;;;-2.01;84.49;100070.27;106980;1260;60413;-88
2023/12/10 07:59:25;;;;;;;37.70;23.40;;;;;;;-2.00;84.33;100072.48;107945;1260;73979;-87
2023/12/10 08:02:19;;;;;;;34.10;21.80;;;;;;;-1.98;83.70;100070.48;106737;1259;71431;-88
2023/12/10 08:04:47;;;;;;;36.60;22.50;;;;;;;-1.89;82.89;100062.91;106589;1260;71595;-88
2023/12/10 08:07:15;;;;;;;32.80;21.70;;;;;;;-1.87;82.73;100066.60;106776;1261;60506;-87
2023/12/10 08:09:44;;;;;;;33.10;23.50;;;;;;;-1.87;83.02;100065.42;106489;1258;61029;-85
2023/12/10 08:12:12;;;;;;;36.00;22.50;;;;;;;-1.89;83.17;100061.33;106677;1257;72712;-88
2023/12/10 08:14:40;;;;;;;36.10;23.70;;;;;;;-1.90;82.90;100059.14;107021;1259;68939;-87
2023/12/10 08:17:09;;;;;;;30.60;21.10;;;;;;;-1.96;82.51;100052.70;106762;1257;72759;-88
2023/12/10 08:19:37;;;;;;;29.60;20.00;;;;;;;-2.02;82.15;100051.77;106285;1259;60408;-79
2023/12/10 08:22:06;;;;;;;30.50;19.80;;;;;;;-1.95;82.07;100049.14;105547;1260;60564;-76
2023/12/10 08:24:35;;;;;;;27.80;18.50;;;;;;;-1.84;81.62;100049.98;105573;1263;73837;-77
2023/12/10 08:27:03;;;;;;;31.80;20.20;;;;;;;-1.86;81.56;100050.77;105585;1260;70398;-76
2023/12/10 08:29:30;;;;;;;31.60;21.70;;;;;;;-1.88;81.76;100050.52;105461;1262;73609;-76
2023/12/10 08:31:58;;;;;;;34.70;21.20;;;;;;;-1.88;81.85;100053.80;105520;1260;60550;-77
2023/12/10 08:34:26;;;;;;;29.10;20.10;;;;;;;-1.86;81.87;100050.77;105548;1257;60571;-77
2023/12/10 08:36:53;;;;;;;30.10;20.00;;;;;;;-1.82;81.83;100046.40;105499;1257;73366;-75
2023/12/10 08:39:21;;;;;;;28.30;18.90;;;;;;;-1.67;81.48;100042.15;106474;1257;69268;-75
2023/12/10 08:41:49;;;;;;;26.90;18.90;;;;;;;-1.51;80.95;100040.02;107789;1257;73630;-75
2023/12/10 08:44:16;;;;;;;30.10;20.80;;;;;;;-1.49;80.41;100038.71;106833;1257;60414;-77
2023/12/10 08:46:44;;;;;;;29.30;19.30;;;;;;;-1.48;80.95;100035.69;105663;1256;60456;-76
2023/12/10 08:49:11;;;;;;;31.80;21.00;;;;;;;-1.40;81.07;100035.59;105574;1260;74100;-75
2023/12/10 08:51:39;;;;;;;25.50;19.30;;;;;;;-1.32;81.19;100032.92;105488;1257;70216;-76
2023/12/10 08:54:07;;;;;;;31.00;19.10;;;;;;;-1.23;80.99;100033.77;105619;1261;71487;-76
2023/12/10 08:56:34;;;;;;;26.20;17.50;;;;;;;-1.04;80.78;100032.19;105620;1257;60547;-79
2023/12/10 08:59:03;;;;;;;24.70;16.80;;;;;;;-0.86;79.99;100029.09;106365;1263;60532;-76
2023/12/10 09:01:31;;;;;;;22.10;15.50;;;;;;;-0.82;79.82;100029.73;106306;1257;72769;-77
2023/12/10 09:03:59;;;;;;;25.50;18.00;;;;;;;-0.82;79.33;100026.45;105585;1264;69122;-77
2023/12/10 09:06:28;;;;;;;27.80;19.40;;;;;;;-0.89;79.33;100027.36;105638;1257;72308;-76
2023/12/10 09:08:55;;;;;;;27.50;19.60;;;;;;;-0.92;79.41;100028.23;105510;1258;60843;-79
2023/12/10 09:11:23;;;;;;;29.90;19.70;;;;;;;-0.93;79.31;100022.89;105424;1263;60356;-76
2023/12/10 09:13:51;;;;;;;27.80;18.50;;;;;;;-0.92;79.25;100021.95;105475;1260;73716;-77
2023/12/10 09:16:18;;;;;;;26.60;18.60;;;;;;;-0.81;78.84;100020.81;105614;1257;72410;-75
2023/12/10 09:18:47;;;;;;;24.80;18.30;;;;;;;-0.71;78.61;100013.98;105415;1261;72711;-77
2023/12/10 09:21:15;;;;;;;27.20;18.30;;;;;;;-0.72;78.59;100012.11;105578;1257;60460;-76
2023/12/10 09:23:43;;;;;;;24.30;17.60;;;;;;;-0.76;78.36;100010.79;105343;1262;60080;-78
2023/12/10 09:26:11;;;;;;;29.80;18.90;;;;;;;-0.80;78.69;100008.60;105507;1259;72622;-78
2023/12/10 09:28:39;;;;;;;32.30;19.10;;;;;;;-0.82;78.95;100001.91;105497;1257;70255;-76
2023/12/10 09:31:06;;;;;;;29.20;17.80;;;;;;;-0.80;79.19;100005.09;105799;1258;72609;-77
2023/12/10 09:33:34;;;;;;;28.70;17.60;;;;;;;-0.66;79.02;99997.68;106810;1258;60906;-76
2023/12/10 09:36:02;;;;;;;27.40;18.30;;;;;;;-0.52;78.46;99990.10;106443;1259;60534;-76
2023/12/10 09:38:30;;;;;;;26.70;18.70;;;;;;;-0.52;78.53;99981.37;105800;1260;72555;-76
2023/12/10 09:40:58;;;;;;;27.50;19.40;;;;;;;-0.57;78.52;99980.97;105667;1257;68727;-77
2023/12/10 09:43:26;;;;;;;27.00;18.30;;;;;;;-0.62;78.79;99975.17;105655;1257;71508;-77
2023/12/10 09:45:53;;;;;;;27.10;17.90;;;;;;;-0.67;78.75;99976.86;105524;1257;60381;-77
2023/12/10 09:48:22;;;;;;;27.80;17.80;;;;;;;-0.72;78.93;99981.02;105437;1263;60529;-78
2023/12/10 09:50:50;;;;;;;24.50;17.70;;;;;;;-0.62;78.85;99970.83;105626;1263;72804;-75
2023/12/10 09:53:18;;;;;;;26.00;18.30;;;;;;;-0.54;78.39;99968.26;105547;1257;70397;-77
2023/12/10 09:55:46;;;;;;;26.10;18.40;;;;;;;-0.57;78.61;99970.52;106255;1259;72711;-77
2023/12/10 09:58:14;;;;;;;28.50;19.90;;;;;;;-0.57;79.09;99968.46;106516;1260;60463;-76
2023/12/10 10:00:42;;;;;;;28.90;21.30;;;;;;;-0.52;79.21;99970.45;106103;1256;60574;-76
2023/12/10 10:03:10;;;;;;;26.90;18.20;;;;;;;-0.46;79.44;99971.64;105560;1262;72550;-76
2023/12/10 10:05:38;;;;;;;31.60;21.00;;;;;;;-0.41;79.34;99976.00;105484;1264;70258;-76
2023/12/10 10:08:06;;;;;;;30.50;21.40;;;;;;;-0.36;79.12;99974.66;105478;1259;72879;-76
2023/12/10 10:10:34;;;;;;;30.70;20.00;;;;;;;-0.25;78.49;99967.52;105386;1258;61241;-75
2023/12/10 10:13:05;;;;;;;28.60;20.30;;;;;;;-0.13;78.11;99962.66;105505;1260;60527;-76
2023/12/10 10:15:33;;;;;;;33.30;22.20;;;;;;;-0.12;78.12;99956.70;105417;1257;73892;-75
2023/12/10 10:18:00;;;;;;;31.80;22.00;;;;;;;-0.11;78.19;99953.81;105325;1264;71683;-75
2023/12/10 10:20:28;;;;;;;32.30;21.60;;;;;;;-0.10;77.81;99954.77;105426;1258;72615;-76
2023/12/10 10:22:56;;;;;;;33.60;21.20;;;;;;;-0.16;77.41;99949.42;105501;1256;60430;-74
2023/12/10 10:25:24;;;;;;;27.20;19.80;;;;;;;-0.22;77.24;99951.35;105688;1257;60364;-75
2023/12/10 10:27:52;;;;;;;25.90;18.90;;;;;;;-0.16;77.15;99954.66;106546;1263;73870;-74
2023/12/10 10:30:19;;;;;;;28.50;19.90;;;;;;;-0.15;77.26;99954.08;106848;1259;70118;-76
2023/12/10 10:32:48;;;;;;;29.50;20.70;;;;;;;-0.19;77.16;99950.66;106267;1261;71502;-78
2023/12/10 10:35:16;;;;;;;28.80;21.00;;;;;;;-0.27;77.26;99954.96;106871;1261;60498;-76
2023/12/10 10:37:43;;;;;;;29.10;21.30;;;;;;;-0.35;77.31;99957.90;107056;1258;60312;-78
2023/12/10 10:40:11;;;;;;;31.30;20.80;;;;;;;-0.37;77.67;99962.89;106393;1257;72701;-78
2023/12/10 10:42:39;;;;;;;33.30;18.50;;;;;;;-0.33;77.53;99967.17;106880;1260;68906;-78
2023/12/10 10:45:07;;;;;;;27.60;20.10;;;;;;;-0.23;77.23;99970.73;107364;1258;71057;-78
2023/12/10 10:47:35;;;;;;;30.00;21.30;;;;;;;-0.20;77.33;99973.35;106806;1259;60547;-78
2023/12/10 10:50:04;;;;;;;30.10;21.60;;;;;;;-0.24;77.33;99964.67;107149;1257;60437;-78
2023/12/10 10:52:53;;;;;;;31.00;21.80;;;;;;;-0.25;77.43;99966.19;107504;1259;73911;-79
2023/12/10 10:55:21;;;;;;;33.80;22.80;;;;;;;-0.29;77.51;99960.13;106995;1257;67821;-77
2023/12/10 10:57:49;;;;;;;35.20;23.20;;;;;;;-0.33;77.73;99959.19;105563;1260;71498;-78
2023/12/10 11:00:17;;;;;;;33.50;22.40;;;;;;;-0.26;77.36;99957.00;105540;1260;60535;-77
2023/12/10 11:02:45;;;;;;;33.70;22.00;;;;;;;-0.18;77.64;99956.17;105459;1262;60640;-77
2023/12/10 11:05:13;;;;;;;38.30;23.80;;;;;;;-0.16;77.83;99956.38;105670;1257;72786;-77
2023/12/10 11:07:42;;;;;;;39.50;25.30;;;;;;;-0.12;78.16;99958.21;105881;1256;69328;-78
2023/12/10 11:10:09;;;;;;;34.40;24.20;;;;;;;-0.11;77.69;99953.67;105886;1259;72818;-77
2023/12/10 11:12:48;;;;;;;34.20;23.30;;;;;;;-0.13;77.72;99950.80;105639;1257;243529;-80